VOZ484 YBSU-YSSY
Flight info
| Callsign | VOZ484 |
|---|---|
| Flight time | 1h 25m |
| Altitude | 34000 |
| Route | SU Q35 SANEG H91 IGDAM H652 TESAT |
| Aircraft | B738/M-SDE2E3FGHIRWXY/LB1 |
Departure
| Time | 2026-05-07 07:58 |
|---|---|
| Airport | Sunshine Coast Airport (YBSU) |
Arrival
| Time | 2026-05-07 09:24 |
|---|---|
| Airport | Sydney Kingsford Smith International Airport (YSSY) |
| Time | Latitude | Longitude | Altitude | Speed | Heading |
|---|---|---|---|---|---|
| 2026-05-07 07:17 | -26.60528 | 153.08958 | 23 ft | 0 kts | 257° |
| 2026-05-07 07:52 | -26.60527 | 153.08966 | 23 ft | 4 kts | 254° |
| 2026-05-07 07:52 | -26.60516 | 153.08992 | 26 ft | 4 kts | 226° |
| 2026-05-07 07:52 | -26.60497 | 153.09004 | 28 ft | 4 kts | 165° |
| 2026-05-07 07:53 | -26.60477 | 153.08990 | 27 ft | 4 kts | 143° |
| 2026-05-07 07:53 | -26.60465 | 153.08979 | 28 ft | 0 kts | 142° |
| 2026-05-07 07:55 | -26.60465 | 153.08980 | 27 ft | 1 kts | 142° |
| 2026-05-07 07:56 | -26.60481 | 153.08993 | 27 ft | 6 kts | 142° |
| 2026-05-07 07:56 | -26.60521 | 153.09037 | 28 ft | 10 kts | 108° |
| 2026-05-07 07:56 | -26.60501 | 153.09111 | 25 ft | 11 kts | 54° |
| 2026-05-07 07:56 | -26.60433 | 153.09159 | 24 ft | 13 kts | 17° |
| 2026-05-07 07:57 | -26.60343 | 153.09178 | 22 ft | 12 kts | 353° |
| 2026-05-07 07:57 | -26.60272 | 153.09124 | 22 ft | 14 kts | 322° |
| 2026-05-07 07:57 | -26.60188 | 153.09054 | 22 ft | 15 kts | 323° |
| 2026-05-07 07:57 | -26.60145 | 153.09017 | 23 ft | 0 kts | 322° |
| 2026-05-07 07:58 | -26.60144 | 153.09016 | 23 ft | 2 kts | 322° |
| 2026-05-07 07:58 | -26.59831 | 153.08747 | 24 ft | 117 kts | 323° |
| 2026-05-07 07:58 | -26.58919 | 153.08040 | 446 ft | 186 kts | 327° |
| 2026-05-07 07:58 | -26.57866 | 153.07288 | 2068 ft | 170 kts | 313° |
| 2026-05-07 07:59 | -26.56978 | 153.06420 | 3277 ft | 178 kts | 313° |
| 2026-05-07 07:59 | -26.55926 | 153.05447 | 3794 ft | 214 kts | 316° |
| 2026-05-07 07:59 | -26.54684 | 153.04346 | 4263 ft | 239 kts | 318° |
| 2026-05-07 07:59 | -26.53331 | 153.03191 | 5019 ft | 254 kts | 323° |
| 2026-05-07 08:00 | -26.51607 | 153.02509 | 5849 ft | 274 kts | 352° |
| 2026-05-07 08:00 | -26.49701 | 153.02709 | 7047 ft | 280 kts | 14° |
| 2026-05-07 08:00 | -26.47845 | 153.03435 | 8190 ft | 286 kts | 18° |
| 2026-05-07 08:00 | -26.46092 | 153.04543 | 9226 ft | 299 kts | 40° |
| 2026-05-07 08:01 | -26.44919 | 153.06495 | 10254 ft | 311 kts | 69° |
| 2026-05-07 08:01 | -26.44542 | 153.08927 | 11057 ft | 326 kts | 85° |
| 2026-05-07 08:01 | -26.44683 | 153.11480 | 11921 ft | 336 kts | 108° |
| 2026-05-07 08:01 | -26.45775 | 153.13765 | 12944 ft | 336 kts | 131° |
| 2026-05-07 08:02 | -26.47524 | 153.15486 | 13918 ft | 338 kts | 148° |
| 2026-05-07 08:02 | -26.49497 | 153.16965 | 14733 ft | 346 kts | 150° |
| 2026-05-07 08:02 | -26.50842 | 153.17946 | 15262 ft | 352 kts | 151° |
| 2026-05-07 08:02 | -26.52909 | 153.19472 | 16107 ft | 360 kts | 150° |
| 2026-05-07 08:03 | -26.55001 | 153.21049 | 16964 ft | 367 kts | 150° |
| 2026-05-07 08:03 | -26.57129 | 153.22668 | 17807 ft | 373 kts | 151° |
| 2026-05-07 08:03 | -26.59376 | 153.24150 | 18581 ft | 377 kts | 159° |
| 2026-05-07 08:03 | -26.61752 | 153.25420 | 19302 ft | 381 kts | 162° |
| 2026-05-07 08:04 | -26.64193 | 153.26642 | 20037 ft | 388 kts | 162° |
| 2026-05-07 08:04 | -26.66676 | 153.27888 | 20753 ft | 395 kts | 162° |
| 2026-05-07 08:04 | -26.69194 | 153.29179 | 21462 ft | 402 kts | 162° |
| 2026-05-07 08:04 | -26.71748 | 153.30516 | 22153 ft | 409 kts | 162° |
| 2026-05-07 08:05 | -26.74342 | 153.31893 | 22844 ft | 416 kts | 162° |
| 2026-05-07 08:05 | -26.76973 | 153.33294 | 23517 ft | 423 kts | 162° |
| 2026-05-07 08:05 | -26.79648 | 153.34720 | 24103 ft | 428 kts | 162° |
| 2026-05-07 08:05 | -26.82395 | 153.35987 | 24670 ft | 422 kts | 174° |
| 2026-05-07 08:06 | -26.85240 | 153.36357 | 25270 ft | 406 kts | 191° |
| 2026-05-07 08:06 | -26.88061 | 153.36285 | 25887 ft | 407 kts | 193° |
| 2026-05-07 08:06 | -26.90903 | 153.36154 | 26453 ft | 411 kts | 194° |
| 2026-05-07 08:06 | -26.93779 | 153.36013 | 27010 ft | 416 kts | 194° |
| 2026-05-07 08:07 | -26.96690 | 153.35883 | 27567 ft | 421 kts | 194° |
| 2026-05-07 08:07 | -26.99631 | 153.35768 | 28123 ft | 426 kts | 193° |
| 2026-05-07 08:07 | -27.02613 | 153.35664 | 28649 ft | 431 kts | 193° |
| 2026-05-07 08:07 | -27.05621 | 153.35568 | 29191 ft | 435 kts | 193° |
| 2026-05-07 08:08 | -27.08665 | 153.35474 | 29719 ft | 439 kts | 194° |
| 2026-05-07 08:08 | -27.11734 | 153.35380 | 30215 ft | 443 kts | 194° |
| 2026-05-07 08:08 | -27.14829 | 153.35286 | 30668 ft | 446 kts | 194° |
| 2026-05-07 08:08 | -27.17894 | 153.35194 | 31156 ft | 447 kts | 194° |
| 2026-05-07 08:09 | -27.21004 | 153.35100 | 31643 ft | 448 kts | 194° |
| 2026-05-07 08:09 | -27.24131 | 153.35004 | 32087 ft | 450 kts | 195° |
| 2026-05-07 08:09 | -27.27276 | 153.34905 | 32502 ft | 453 kts | 195° |
| 2026-05-07 08:09 | -27.30433 | 153.34805 | 32905 ft | 456 kts | 195° |
| 2026-05-07 08:10 | -27.33593 | 153.34647 | 33290 ft | 450 kts | 200° |
| 2026-05-07 08:10 | -27.36609 | 153.34010 | 33677 ft | 434 kts | 210° |
| 2026-05-07 08:10 | -27.39425 | 153.32931 | 34028 ft | 422 kts | 217° |
| 2026-05-07 08:11 | -27.44469 | 153.29748 | 34039 ft | 415 kts | 225° |
| 2026-05-07 08:11 | -27.49362 | 153.26390 | 34046 ft | 407 kts | 225° |
| 2026-05-07 08:12 | -27.54211 | 153.23088 | 34062 ft | 408 kts | 225° |
| 2026-05-07 08:12 | -27.59090 | 153.19781 | 34054 ft | 410 kts | 225° |
| 2026-05-07 08:13 | -27.63987 | 153.16470 | 34059 ft | 411 kts | 225° |
| 2026-05-07 08:13 | -27.68887 | 153.13156 | 34053 ft | 411 kts | 225° |
| 2026-05-07 08:14 | -27.73790 | 153.09836 | 34054 ft | 411 kts | 225° |
| 2026-05-07 08:14 | -27.78684 | 153.06517 | 34064 ft | 410 kts | 225° |
| 2026-05-07 08:15 | -27.83773 | 153.03443 | 34057 ft | 427 kts | 216° |
| 2026-05-07 08:15 | -27.89342 | 153.01041 | 34067 ft | 429 kts | 215° |
| 2026-05-07 08:16 | -27.94924 | 152.98660 | 34073 ft | 428 kts | 215° |
| 2026-05-07 08:16 | -28.00480 | 152.96240 | 34063 ft | 427 kts | 216° |
| 2026-05-07 08:17 | -28.06020 | 152.93809 | 34070 ft | 427 kts | 216° |
| 2026-05-07 08:17 | -28.11562 | 152.91371 | 34067 ft | 427 kts | 216° |
| 2026-05-07 08:18 | -28.17080 | 152.88918 | 34083 ft | 425 kts | 216° |
| 2026-05-07 08:18 | -28.22552 | 152.86475 | 34082 ft | 425 kts | 216° |
| 2026-05-07 08:19 | -28.28059 | 152.84016 | 34084 ft | 426 kts | 216° |
| 2026-05-07 08:19 | -28.33571 | 152.81554 | 34089 ft | 426 kts | 216° |
| 2026-05-07 08:20 | -28.39081 | 152.79093 | 34072 ft | 425 kts | 216° |
| 2026-05-07 08:20 | -28.44565 | 152.76641 | 34094 ft | 423 kts | 216° |
| 2026-05-07 08:21 | -28.50042 | 152.74184 | 34089 ft | 423 kts | 216° |
| 2026-05-07 08:21 | -28.55527 | 152.71722 | 34083 ft | 425 kts | 216° |
| 2026-05-07 08:22 | -28.61028 | 152.69251 | 34084 ft | 426 kts | 216° |
| 2026-05-07 08:22 | -28.66548 | 152.66770 | 34069 ft | 427 kts | 216° |
| 2026-05-07 08:23 | -28.72072 | 152.64285 | 34087 ft | 427 kts | 216° |
| 2026-05-07 08:23 | -28.77606 | 152.61791 | 34085 ft | 428 kts | 216° |
| 2026-05-07 08:24 | -28.83148 | 152.59292 | 34073 ft | 428 kts | 216° |
| 2026-05-07 08:24 | -28.88470 | 152.56484 | 34076 ft | 417 kts | 221° |
| 2026-05-07 08:25 | -28.93598 | 152.53404 | 34075 ft | 416 kts | 221° |
| 2026-05-07 08:25 | -28.98714 | 152.50321 | 34072 ft | 416 kts | 221° |
| 2026-05-07 08:26 | -29.06401 | 152.45726 | 34073 ft | 416 kts | 221° |
| 2026-05-07 08:26 | -29.11531 | 152.42666 | 34078 ft | 416 kts | 221° |
| 2026-05-07 08:27 | -29.16661 | 152.39604 | 34088 ft | 417 kts | 221° |
| 2026-05-07 08:27 | -29.21805 | 152.36529 | 34080 ft | 418 kts | 221° |
| 2026-05-07 08:28 | -29.26963 | 152.33444 | 34071 ft | 419 kts | 220° |
| 2026-05-07 08:28 | -29.32128 | 152.30351 | 34082 ft | 419 kts | 220° |
| 2026-05-07 08:29 | -29.37300 | 152.27249 | 34084 ft | 420 kts | 220° |
| 2026-05-07 08:29 | -29.42454 | 152.24155 | 34087 ft | 422 kts | 220° |
| 2026-05-07 08:30 | -29.47648 | 152.21043 | 34066 ft | 418 kts | 219° |
| 2026-05-07 08:30 | -29.52795 | 152.17946 | 34090 ft | 419 kts | 220° |
| 2026-05-07 08:31 | -29.57963 | 152.14826 | 34098 ft | 421 kts | 220° |
| 2026-05-07 08:31 | -29.63162 | 152.11689 | 34100 ft | 423 kts | 220° |
| 2026-05-07 08:32 | -29.68391 | 152.08539 | 34092 ft | 427 kts | 217° |
| 2026-05-07 08:32 | -29.71165 | 152.07193 | 34100 ft | 440 kts | 210° |
| 2026-05-07 08:32 | -29.74166 | 152.06280 | 34106 ft | 450 kts | 205° |
| 2026-05-07 08:33 | -29.80311 | 152.04739 | 34094 ft | 453 kts | 204° |
| 2026-05-07 08:33 | -29.86452 | 152.03216 | 34116 ft | 451 kts | 204° |
| 2026-05-07 08:34 | -29.92567 | 152.01644 | 34119 ft | 449 kts | 205° |
| 2026-05-07 08:34 | -29.98654 | 152.00051 | 34112 ft | 448 kts | 205° |
| 2026-05-07 08:35 | -30.04725 | 151.98456 | 34113 ft | 447 kts | 205° |
| 2026-05-07 08:35 | -30.10794 | 151.96861 | 34127 ft | 447 kts | 205° |
| 2026-05-07 08:36 | -30.16858 | 151.95267 | 34127 ft | 447 kts | 205° |
| 2026-05-07 08:36 | -30.22912 | 151.93675 | 34132 ft | 446 kts | 205° |
| 2026-05-07 08:37 | -30.28958 | 151.92082 | 34143 ft | 445 kts | 205° |
| 2026-05-07 08:37 | -30.34834 | 151.90155 | 34142 ft | 431 kts | 213° |
| 2026-05-07 08:38 | -30.40361 | 151.87566 | 34156 ft | 427 kts | 215° |
| 2026-05-07 08:38 | -30.45854 | 151.84934 | 34152 ft | 427 kts | 214° |
| 2026-05-07 08:39 | -30.51354 | 151.82334 | 34162 ft | 427 kts | 214° |
| 2026-05-07 08:39 | -30.56869 | 151.79751 | 34159 ft | 427 kts | 214° |
| 2026-05-07 08:40 | -30.62366 | 151.77182 | 34168 ft | 426 kts | 214° |
| 2026-05-07 08:40 | -30.67816 | 151.74633 | 34154 ft | 424 kts | 215° |
| 2026-05-07 08:41 | -30.73273 | 151.72078 | 34164 ft | 423 kts | 214° |
| 2026-05-07 08:41 | -30.78719 | 151.69520 | 34171 ft | 422 kts | 215° |
| 2026-05-07 08:42 | -30.84150 | 151.66966 | 34173 ft | 421 kts | 215° |
| 2026-05-07 08:42 | -30.89578 | 151.64412 | 34163 ft | 420 kts | 215° |
| 2026-05-07 08:43 | -30.94988 | 151.61864 | 34173 ft | 419 kts | 215° |
| 2026-05-07 08:43 | -31.00397 | 151.59312 | 34176 ft | 419 kts | 215° |
| 2026-05-07 08:44 | -31.05798 | 151.56761 | 34181 ft | 419 kts | 215° |
| 2026-05-07 08:44 | -31.11194 | 151.54210 | 34192 ft | 418 kts | 215° |
| 2026-05-07 08:45 | -31.16589 | 151.51655 | 34191 ft | 418 kts | 216° |
| 2026-05-07 08:45 | -31.21981 | 151.49100 | 34192 ft | 417 kts | 216° |
| 2026-05-07 08:46 | -31.27359 | 151.46547 | 34195 ft | 417 kts | 216° |
| 2026-05-07 08:46 | -31.32724 | 151.43999 | 34204 ft | 415 kts | 216° |
| 2026-05-07 08:47 | -31.38068 | 151.41456 | 34203 ft | 414 kts | 216° |
| 2026-05-07 08:47 | -31.43444 | 151.38998 | 34201 ft | 415 kts | 214° |
| 2026-05-07 08:48 | -31.48847 | 151.36617 | 34201 ft | 414 kts | 214° |
| 2026-05-07 08:48 | -31.54221 | 151.34239 | 34199 ft | 412 kts | 214° |
| 2026-05-07 08:49 | -31.59568 | 151.31855 | 34209 ft | 411 kts | 214° |
| 2026-05-07 08:49 | -31.64902 | 151.29467 | 34215 ft | 410 kts | 214° |
| 2026-05-07 08:50 | -31.70225 | 151.27080 | 34203 ft | 409 kts | 214° |
| 2026-05-07 08:50 | -31.74644 | 151.25099 | 34215 ft | 408 kts | 214° |
| 2026-05-07 08:51 | -31.79937 | 151.22722 | 34221 ft | 407 kts | 214° |
| 2026-05-07 08:51 | -31.85221 | 151.20345 | 34218 ft | 406 kts | 214° |
| 2026-05-07 08:52 | -31.91351 | 151.17586 | 34211 ft | 405 kts | 214° |
| 2026-05-07 08:52 | -31.95755 | 151.15604 | 34216 ft | 404 kts | 213° |
| 2026-05-07 08:53 | -32.00998 | 151.13255 | 34216 ft | 403 kts | 213° |
| 2026-05-07 08:53 | -32.06227 | 151.10912 | 34207 ft | 402 kts | 213° |
| 2026-05-07 08:54 | -32.11428 | 151.08579 | 34206 ft | 399 kts | 213° |
| 2026-05-07 08:54 | -32.16607 | 151.06248 | 34207 ft | 398 kts | 213° |
| 2026-05-07 08:55 | -32.21779 | 151.03917 | 34204 ft | 398 kts | 213° |
| 2026-05-07 08:55 | -32.26944 | 151.01587 | 34198 ft | 397 kts | 212° |
| 2026-05-07 08:56 | -32.32108 | 150.99255 | 33640 ft | 395 kts | 212° |
| 2026-05-07 08:56 | -32.34655 | 150.98109 | 33084 ft | 388 kts | 211° |
| 2026-05-07 08:56 | -32.37161 | 150.96978 | 32496 ft | 383 kts | 210° |
| 2026-05-07 08:57 | -32.39633 | 150.95859 | 31914 ft | 378 kts | 210° |
| 2026-05-07 08:57 | -32.42077 | 150.94751 | 31185 ft | 376 kts | 208° |
| 2026-05-07 08:57 | -32.44508 | 150.93648 | 30520 ft | 372 kts | 208° |
| 2026-05-07 08:57 | -32.46962 | 150.92687 | 29744 ft | 374 kts | 200° |
| 2026-05-07 08:58 | -32.49522 | 150.92171 | 29014 ft | 373 kts | 195° |
| 2026-05-07 08:58 | -32.52102 | 150.91922 | 28453 ft | 369 kts | 191° |
| 2026-05-07 08:58 | -32.54659 | 150.92016 | 27965 ft | 369 kts | 184° |
| 2026-05-07 08:58 | -32.57188 | 150.92444 | 27462 ft | 364 kts | 182° |
| 2026-05-07 08:59 | -32.59661 | 150.92910 | 26975 ft | 355 kts | 181° |
| 2026-05-07 08:59 | -32.62096 | 150.93370 | 26529 ft | 356 kts | 181° |
| 2026-05-07 08:59 | -32.64601 | 150.93823 | 26027 ft | 372 kts | 181° |
| 2026-05-07 08:59 | -32.67148 | 150.94286 | 25511 ft | 367 kts | 181° |
| 2026-05-07 09:00 | -32.69638 | 150.94747 | 25015 ft | 357 kts | 181° |
| 2026-05-07 09:00 | -32.72059 | 150.95191 | 24556 ft | 348 kts | 181° |
| 2026-05-07 09:00 | -32.74389 | 150.95614 | 24087 ft | 339 kts | 181° |
| 2026-05-07 09:00 | -32.76694 | 150.96030 | 23608 ft | 331 kts | 181° |
| 2026-05-07 09:01 | -32.78952 | 150.96437 | 23129 ft | 324 kts | 181° |
| 2026-05-07 09:01 | -32.81152 | 150.96830 | 22886 ft | 321 kts | 181° |
| 2026-05-07 09:01 | -32.83437 | 150.97221 | 22441 ft | 340 kts | 181° |
| 2026-05-07 09:01 | -32.85764 | 150.97627 | 21923 ft | 334 kts | 181° |
| 2026-05-07 09:02 | -32.88024 | 150.98035 | 21429 ft | 323 kts | 181° |
| 2026-05-07 09:02 | -32.90218 | 150.98433 | 20958 ft | 314 kts | 181° |
| 2026-05-07 09:02 | -32.92359 | 150.98818 | 20474 ft | 307 kts | 181° |
| 2026-05-07 09:02 | -32.94459 | 150.99192 | 20013 ft | 303 kts | 181° |
| 2026-05-07 09:03 | -32.96528 | 150.99559 | 19574 ft | 298 kts | 181° |
| 2026-05-07 09:03 | -32.98588 | 150.99921 | 19131 ft | 303 kts | 181° |
| 2026-05-07 09:03 | -33.00725 | 151.00290 | 18616 ft | 317 kts | 181° |
| 2026-05-07 09:03 | -33.02904 | 151.00673 | 18016 ft | 314 kts | 180° |
| 2026-05-07 09:04 | -33.05037 | 151.01058 | 17482 ft | 306 kts | 180° |
| 2026-05-07 09:04 | -33.07124 | 151.01436 | 17003 ft | 300 kts | 180° |
| 2026-05-07 09:04 | -33.09178 | 151.01804 | 16560 ft | 298 kts | 179° |
| 2026-05-07 09:04 | -33.11224 | 151.02168 | 16107 ft | 297 kts | 179° |
| 2026-05-07 09:05 | -33.13298 | 151.02533 | 15671 ft | 310 kts | 179° |
| 2026-05-07 09:05 | -33.15506 | 151.02919 | 15196 ft | 328 kts | 178° |
| 2026-05-07 09:05 | -33.17769 | 151.03325 | 14707 ft | 327 kts | 177° |
| 2026-05-07 09:05 | -33.19997 | 151.03730 | 14223 ft | 321 kts | 176° |
| 2026-05-07 09:06 | -33.22189 | 151.04125 | 13706 ft | 316 kts | 176° |
| 2026-05-07 09:06 | -33.24352 | 151.04515 | 13116 ft | 315 kts | 175° |
| 2026-05-07 09:06 | -33.26548 | 151.04929 | 12449 ft | 321 kts | 175° |
| 2026-05-07 09:06 | -33.28745 | 151.05354 | 11946 ft | 319 kts | 175° |
| 2026-05-07 09:07 | -33.30940 | 151.05778 | 11488 ft | 321 kts | 175° |
| 2026-05-07 09:07 | -33.33151 | 151.06203 | 11020 ft | 322 kts | 175° |
| 2026-05-07 09:07 | -33.35322 | 151.06622 | 10825 ft | 307 kts | 175° |
| 2026-05-07 09:07 | -33.37375 | 151.07020 | 10682 ft | 292 kts | 175° |
| 2026-05-07 09:08 | -33.39354 | 151.07401 | 10574 ft | 284 kts | 175° |
| 2026-05-07 09:08 | -33.41287 | 151.07772 | 10457 ft | 279 kts | 175° |
| 2026-05-07 09:08 | -33.43216 | 151.08140 | 10371 ft | 281 kts | 175° |
| 2026-05-07 09:08 | -33.45120 | 151.08505 | 10242 ft | 271 kts | 175° |
| 2026-05-07 09:09 | -33.46943 | 151.08857 | 10126 ft | 260 kts | 175° |
| 2026-05-07 09:09 | -33.48690 | 151.09194 | 9998 ft | 248 kts | 175° |
| 2026-05-07 09:09 | -33.50365 | 151.09517 | 9800 ft | 241 kts | 175° |
| 2026-05-07 09:09 | -33.52006 | 151.09831 | 9541 ft | 238 kts | 175° |
| 2026-05-07 09:10 | -33.53606 | 151.10137 | 9304 ft | 234 kts | 175° |
| 2026-05-07 09:10 | -33.55206 | 151.10444 | 9030 ft | 232 kts | 176° |
| 2026-05-07 09:10 | -33.56781 | 151.10747 | 8795 ft | 227 kts | 175° |
| 2026-05-07 09:10 | -33.58347 | 151.11048 | 8572 ft | 230 kts | 175° |
| 2026-05-07 09:11 | -33.59956 | 151.11356 | 8297 ft | 238 kts | 175° |
| 2026-05-07 09:11 | -33.61605 | 151.11673 | 8037 ft | 240 kts | 175° |
| 2026-05-07 09:11 | -33.63232 | 151.11996 | 7790 ft | 235 kts | 175° |
| 2026-05-07 09:11 | -33.64836 | 151.12313 | 7522 ft | 232 kts | 175° |
| 2026-05-07 09:12 | -33.66416 | 151.12626 | 7264 ft | 229 kts | 175° |
| 2026-05-07 09:12 | -33.67967 | 151.12933 | 7008 ft | 226 kts | 175° |
| 2026-05-07 09:12 | -33.69512 | 151.13238 | 6751 ft | 224 kts | 175° |
| 2026-05-07 09:12 | -33.71022 | 151.13633 | 6515 ft | 224 kts | 162° |
| 2026-05-07 09:13 | -33.72326 | 151.14680 | 6305 ft | 230 kts | 144° |
| 2026-05-07 09:13 | -33.73338 | 151.16238 | 6063 ft | 246 kts | 127° |
| 2026-05-07 09:13 | -33.74043 | 151.18180 | 5813 ft | 260 kts | 118° |
| 2026-05-07 09:13 | -33.74673 | 151.20216 | 5534 ft | 260 kts | 118° |
| 2026-05-07 09:14 | -33.75265 | 151.22214 | 5290 ft | 248 kts | 118° |
| 2026-05-07 09:14 | -33.75810 | 151.24124 | 5077 ft | 237 kts | 117° |
| 2026-05-07 09:14 | -33.76326 | 151.25970 | 4862 ft | 230 kts | 118° |
| 2026-05-07 09:14 | -33.76815 | 151.27770 | 4692 ft | 223 kts | 118° |
| 2026-05-07 09:15 | -33.77279 | 151.29522 | 4494 ft | 218 kts | 117° |
| 2026-05-07 09:15 | -33.77730 | 151.31244 | 4415 ft | 214 kts | 117° |
| 2026-05-07 09:15 | -33.78179 | 151.32959 | 4325 ft | 215 kts | 117° |
| 2026-05-07 09:15 | -33.78624 | 151.34661 | 4233 ft | 212 kts | 118° |
| 2026-05-07 09:16 | -33.79128 | 151.36283 | 4190 ft | 201 kts | 130° |
| 2026-05-07 09:16 | -33.79972 | 151.37533 | 4155 ft | 187 kts | 152° |
| 2026-05-07 09:16 | -33.81070 | 151.38247 | 4096 ft | 174 kts | 173° |
| 2026-05-07 09:16 | -33.82221 | 151.38463 | 4039 ft | 166 kts | 182° |
| 2026-05-07 09:17 | -33.83366 | 151.38596 | 3962 ft | 161 kts | 182° |
| 2026-05-07 09:17 | -33.84484 | 151.38727 | 3836 ft | 161 kts | 183° |
| 2026-05-07 09:17 | -33.85590 | 151.38864 | 3687 ft | 160 kts | 183° |
| 2026-05-07 09:17 | -33.86682 | 151.39001 | 3530 ft | 159 kts | 185° |
| 2026-05-07 09:18 | -33.87751 | 151.38830 | 3389 ft | 147 kts | 207° |
| 2026-05-07 09:18 | -33.88401 | 151.38015 | 3380 ft | 141 kts | 237° |
| 2026-05-07 09:18 | -33.88939 | 151.37028 | 3198 ft | 139 kts | 233° |
| 2026-05-07 09:18 | -33.89419 | 151.36028 | 3017 ft | 136 kts | 240° |
| 2026-05-07 09:19 | -33.89783 | 151.35024 | 2844 ft | 126 kts | 243° |
| 2026-05-07 09:19 | -33.90119 | 151.34068 | 2678 ft | 124 kts | 244° |
| 2026-05-07 09:19 | -33.90413 | 151.33096 | 2516 ft | 124 kts | 247° |
| 2026-05-07 09:19 | -33.90673 | 151.32099 | 2344 ft | 126 kts | 248° |
| 2026-05-07 09:20 | -33.90920 | 151.31083 | 2172 ft | 127 kts | 250° |
| 2026-05-07 09:20 | -33.91163 | 151.30058 | 1984 ft | 127 kts | 251° |
| 2026-05-07 09:20 | -33.91402 | 151.29039 | 1821 ft | 127 kts | 251° |
| 2026-05-07 09:20 | -33.91642 | 151.28008 | 1638 ft | 130 kts | 251° |
| 2026-05-07 09:21 | -33.91884 | 151.26974 | 1466 ft | 125 kts | 251° |
| 2026-05-07 09:21 | -33.92105 | 151.26029 | 1328 ft | 110 kts | 251° |
| 2026-05-07 09:21 | -33.92307 | 151.25167 | 1165 ft | 106 kts | 252° |
| 2026-05-07 09:21 | -33.92500 | 151.24337 | 1028 ft | 101 kts | 250° |
| 2026-05-07 09:22 | -33.92694 | 151.23523 | 860 ft | 102 kts | 254° |
| 2026-05-07 09:22 | -33.92888 | 151.22688 | 721 ft | 104 kts | 255° |
| 2026-05-07 09:22 | -33.93083 | 151.21850 | 560 ft | 104 kts | 256° |
| 2026-05-07 09:22 | -33.93273 | 151.21024 | 458 ft | 101 kts | 254° |
| 2026-05-07 09:23 | -33.93462 | 151.20224 | 280 ft | 101 kts | 256° |
| 2026-05-07 09:23 | -33.93661 | 151.19404 | 166 ft | 102 kts | 257° |
| 2026-05-07 09:23 | -33.93852 | 151.18584 | 48 ft | 98 kts | 257° |
| 2026-05-07 09:23 | -33.94005 | 151.17926 | 27 ft | 55 kts | 254° |
| 2026-05-07 09:24 | -33.94075 | 151.17628 | 27 ft | 32 kts | 255° |
| 2026-05-07 09:24 | -33.94126 | 151.17410 | 27 ft | 20 kts | 254° |
| 2026-05-07 09:24 | -33.94146 | 151.17298 | 27 ft | 10 kts | 283° |
| 2026-05-07 09:24 | -33.94088 | 151.17257 | 28 ft | 10 kts | 348° |
| 2026-05-07 09:25 | -33.94024 | 151.17240 | 28 ft | 9 kts | 348° |
| 2026-05-07 09:25 | -33.93967 | 151.17258 | 28 ft | 10 kts | 59° |
| 2026-05-07 09:25 | -33.93941 | 151.17351 | 28 ft | 15 kts | 73° |
| 2026-05-07 09:25 | -33.93907 | 151.17492 | 27 ft | 17 kts | 74° |
| 2026-05-07 09:26 | -33.93868 | 151.17588 | 28 ft | 11 kts | 27° |
| 2026-05-07 09:26 | -33.93793 | 151.17587 | 28 ft | 11 kts | 348° |
| 2026-05-07 09:26 | -33.93720 | 151.17567 | 28 ft | 11 kts | 348° |
| 2026-05-07 09:26 | -33.93654 | 151.17592 | 29 ft | 10 kts | 53° |
| 2026-05-07 09:27 | -33.93642 | 151.17673 | 29 ft | 10 kts | 97° |
| 2026-05-07 09:27 | -33.93654 | 151.17756 | 29 ft | 11 kts | 99° |
| 2026-05-07 09:27 | -33.93574 | 151.17834 | 28 ft | 4 kts | 43° |
| 2026-05-07 09:28 | -33.93571 | 151.17861 | 29 ft | 4 kts | 93° |
| 2026-05-07 09:28 | -33.93575 | 151.17890 | 29 ft | 1 kts | 99° |
| 2026-05-07 09:28 | -33.93576 | 151.17900 | 29 ft | 0 kts | 101° |